Time;durP1;ratioP1;P1;durP2;ratioP2;P2;SDS_P1;SDS_P2;PMS_P1;PMS_P2;Temp;Humidity;BMP_temperature;BMP_pressure;BME280_temperature;BME280_humidity;BME280_pressure;Samples;Min_cycle;Max_cycle;Signal;HPM_P1;HPM_P2
2021/06/21 00:00:09;;;;;;;3.15;1.80;;;18.30;82.30;;;;;;2069024;28;20034;-86
2021/06/21 00:01:09;;;;;;;4.85;2.15;;;18.30;82.50;;;;;;2081638;28;20018;-85
2021/06/21 00:02:10;;;;;;;2.95;2.05;;;18.20;82.60;;;;;;2081128;28;20030;-85
2021/06/21 00:03:10;;;;;;;6.18;2.55;;;18.20;82.80;;;;;;2072559;28;20034;-85
2021/06/21 00:04:11;;;;;;;4.65;2.30;;;18.10;82.90;;;;;;2081808;28;20088;-86
2021/06/21 00:05:13;;;;;;;3.88;2.08;;;18.10;83.00;;;;;;2088486;28;20051;-85
2021/06/21 00:06:15;;;;;;;3.97;2.20;;;18.10;83.10;;;;;;2089511;28;20483;-85
2021/06/21 00:07:16;;;;;;;4.95;2.45;;;18.10;83.20;;;;;;2089414;28;20968;-86
2021/06/21 00:08:17;;;;;;;3.65;2.38;;;18.00;83.20;;;;;;2089077;28;20023;-86
2021/06/21 00:09:17;;;;;;;3.45;2.13;;;18.00;83.20;;;;;;2090553;28;20116;-85
2021/06/21 00:10:18;;;;;;;3.97;2.40;;;18.00;83.30;;;;;;2089244;28;20025;-86
2021/06/21 00:11:19;;;;;;;3.60;2.42;;;17.90;83.30;;;;;;2088611;28;20021;-86
2021/06/21 00:12:19;;;;;;;4.68;2.65;;;17.90;84.10;;;;;;2086199;28;20025;-86
2021/06/21 00:13:20;;;;;;;5.30;2.60;;;17.90;83.60;;;;;;2095766;28;20028;-86
2021/06/21 00:14:21;;;;;;;3.42;2.25;;;17.90;83.60;;;;;;2080919;28;20064;-86
2021/06/21 00:15:23;;;;;;;5.03;2.42;;;17.80;83.60;;;;;;2079982;28;21923;-85
2021/06/21 00:16:26;;;;;;;3.38;2.20;;;17.80;83.70;;;;;;2080205;28;20104;-86
2021/06/21 00:17:26;;;;;;;3.58;2.22;;;17.80;83.80;;;;;;2081529;28;20034;-86
2021/06/21 00:18:27;;;;;;;5.18;2.78;;;17.80;83.90;;;;;;2086568;28;20083;-86
2021/06/21 00:19:28;;;;;;;4.45;2.70;;;17.70;83.80;;;;;;2088350;28;20036;-87
2021/06/21 00:20:28;;;;;;;4.97;2.90;;;17.80;83.90;;;;;;2089463;28;20060;-85
2021/06/21 00:21:29;;;;;;;5.25;2.95;;;17.70;83.90;;;;;;2077233;28;20113;-86
2021/06/21 00:22:30;;;;;;;4.88;2.80;;;17.70;84.00;;;;;;2087871;28;20079;-86
2021/06/21 00:23:30;;;;;;;4.53;2.88;;;17.60;84.00;;;;;;2089180;28;20033;-86
2021/06/21 00:24:32;;;;;;;4.45;3.00;;;17.70;84.10;;;;;;2081569;28;20030;-86
2021/06/21 00:25:32;;;;;;;6.43;3.35;;;17.60;84.10;;;;;;2092860;28;20028;-86
2021/06/21 00:26:34;;;;;;;6.45;3.42;;;17.60;84.20;;;;;;2089787;28;20123;-87
2021/06/21 00:27:34;;;;;;;5.38;3.40;;;17.60;84.10;;;;;;2072257;28;20022;-85
2021/06/21 00:28:35;;;;;;;4.25;3.20;;;17.60;84.10;;;;;;2073187;28;20400;-85
2021/06/21 00:29:36;;;;;;;4.07;2.83;;;17.60;84.00;;;;;;2088896;28;20060;-86
2021/06/21 00:30:36;;;;;;;5.47;2.80;;;17.50;84.10;;;;;;2097628;28;20025;-86
2021/06/21 00:31:37;;;;;;;5.47;3.40;;;17.60;84.20;;;;;;2089614;28;20060;-86
2021/06/21 00:32:39;;;;;;;4.53;3.22;;;17.50;84.20;;;;;;2065087;28;20117;-85
2021/06/21 00:33:40;;;;;;;4.95;3.55;;;17.50;84.10;;;;;;2073881;28;20022;-86
2021/06/21 00:34:41;;;;;;;4.10;3.22;;;17.50;84.00;;;;;;2080854;28;20037;-86
2021/06/21 00:35:42;;;;;;;5.65;3.70;;;17.50;84.10;;;;;;2068128;28;20045;-86
2021/06/21 00:36:43;;;;;;;5.55;3.92;;;17.50;84.10;;;;;;2073144;28;20116;-86
2021/06/21 00:37:45;;;;;;;6.00;4.07;;;17.50;84.10;;;;;;2089527;28;20017;-87
2021/06/21 00:38:45;;;;;;;4.38;3.42;;;17.50;84.20;;;;;;2097043;28;20025;-86
2021/06/21 00:39:46;;;;;;;5.45;3.88;;;17.40;84.20;;;;;;2081287;28;20083;-87
2021/06/21 00:40:47;;;;;;;5.32;3.28;;;17.40;84.20;;;;;;2089182;28;20360;-87
2021/06/21 00:41:47;;;;;;;5.55;3.40;;;17.40;84.30;;;;;;2080522;28;20121;-87
2021/06/21 00:42:48;;;;;;;4.15;3.20;;;17.40;84.30;;;;;;2081107;28;20030;-87
2021/06/21 00:43:49;;;;;;;6.55;3.90;;;17.40;84.40;;;;;;2081747;28;20017;-87
2021/06/21 00:44:50;;;;;;;5.65;3.45;;;17.40;84.30;;;;;;2067344;28;20509;-87
2021/06/21 00:45:50;;;;;;;6.07;3.78;;;17.40;84.30;;;;;;2072161;28;20578;-87
2021/06/21 00:46:51;;;;;;;5.72;3.70;;;17.40;84.30;;;;;;2074752;28;20065;-87
2021/06/21 00:47:53;;;;;;;4.80;3.25;;;17.40;84.90;;;;;;2072949;28;20022;-87
2021/06/21 00:48:54;;;;;;;4.85;3.20;;;17.40;84.30;;;;;;2073051;28;20121;-86
2021/06/21 00:49:55;;;;;;;4.60;3.38;;;17.40;84.30;;;;;;2093717;28;20052;-86
2021/06/21 00:50:55;;;;;;;6.53;3.50;;;17.40;84.30;;;;;;2087840;28;20025;-86
2021/06/21 00:51:57;;;;;;;4.07;2.88;;;17.40;84.30;;;;;;2087883;28;20555;-85
2021/06/21 00:53:00;;;;;;;4.60;3.33;;;17.40;84.40;;;;;;2073211;28;20030;-86
2021/06/21 00:54:01;;;;;;;5.35;3.17;;;17.40;84.40;;;;;;2081413;28;20105;-86
2021/06/21 00:55:03;;;;;;;5.50;3.90;;;17.40;84.40;;;;;;2081143;28;20044;-87
2021/06/21 00:56:05;;;;;;;5.82;4.05;;;17.40;84.50;;;;;;2072872;28;20026;-86
2021/06/21 00:57:06;;;;;;;5.57;3.58;;;17.30;84.40;;;;;;2080965;28;20091;-86
2021/06/21 00:58:07;;;;;;;4.90;3.72;;;17.30;84.50;;;;;;2081183;28;20032;-86
2021/06/21 00:59:08;;;;;;;5.40;3.80;;;17.30;84.60;;;;;;2090279;28;20034;-85
2021/06/21 01:00:14;;;;;;;5.55;3.97;;;17.30;84.60;;;;;;2078437;28;20025;-85
2021/06/21 01:01:15;;;;;;;5.60;4.07;;;17.30;85.30;;;;;;2082904;28;20025;-85
2021/06/21 01:02:17;;;;;;;6.07;4.20;;;17.20;84.70;;;;;;2088355;28;20535;-85
2021/06/21 01:03:18;;;;;;;6.28;4.22;;;17.10;84.70;;;;;;2089575;28;20436;-84
2021/06/21 01:04:18;;;;;;;6.30;4.43;;;17.10;84.90;;;;;;2088783;28;20025;-84
2021/06/21 01:05:26;;;;;;;7.38;4.53;;;17.00;85.00;;;;;;2080835;28;20033;-86
2021/06/21 01:06:27;;;;;;;7.10;4.70;;;17.00;85.30;;;;;;2089019;28;20049;-84
2021/06/21 01:07:28;;;;;;;7.07;4.70;;;16.90;85.40;;;;;;2089889;28;20024;-83
2021/06/21 01:08:28;;;;;;;5.88;4.20;;;16.80;85.60;;;;;;2092466;28;20025;-84
2021/06/21 01:09:29;;;;;;;7.13;4.70;;;16.80;85.80;;;;;;2075852;28;20063;-83
2021/06/21 01:10:31;;;;;;;5.63;4.38;;;16.80;85.90;;;;;;2061101;28;20030;-84
2021/06/21 01:11:45;;;;;;;7.97;5.38;;;16.80;86.00;;;;;;2064583;28;20200;-85
2021/06/21 01:13:01;;;;;;;5.45;4.43;;;16.70;85.90;;;;;;2082534;28;20486;-84
2021/06/21 01:14:05;;;;;;;7.80;4.70;;;16.70;86.00;;;;;;2094778;28;20033;-85
2021/06/21 01:15:08;;;;;;;6.40;4.72;;;16.70;86.10;;;;;;2083954;28;20057;-83
2021/06/21 01:16:29;;;;;;;6.35;5.10;;;16.60;86.20;;;;;;2080070;28;20034;-84
2021/06/21 01:17:34;;;;;;;;;;;16.60;86.20;;;;;;2079810;28;20026;-83
2021/06/21 01:18:35;;;;;;;5.88;4.35;;;16.50;86.20;;;;;;2089370;28;20307;-82
2021/06/21 01:19:40;;;;;;;6.18;4.78;;;16.50;86.20;;;;;;2088955;28;20398;-83
2021/06/21 01:21:02;;;;;;;6.53;4.68;;;16.50;86.30;;;;;;2095459;28;20029;-83
2021/06/21 01:22:22;;;;;;;6.80;4.95;;;16.40;86.40;;;;;;2095210;28;20390;-84
2021/06/21 01:24:09;;;;;;;7.45;5.30;;;16.40;86.50;;;;;;2095030;28;20411;-83
2021/06/21 01:25:22;;;;;;;6.50;4.40;;;16.40;86.50;;;;;;2097154;28;20045;-83
2021/06/21 01:27:05;;;;;;;6.60;4.63;;;16.40;86.50;;;;;;2090568;28;20033;-84
2021/06/21 01:28:46;;;;;;;6.38;4.80;;;16.30;86.50;;;;;;2084831;28;20045;-83
2021/06/21 01:29:54;;;;;;;6.93;4.75;;;16.30;86.50;;;;;;2085698;28;20033;-83
2021/06/21 01:31:09;;;;;;;6.15;4.85;;;16.30;86.40;;;;;;2095937;28;20039;-82
2021/06/21 01:32:18;;;;;;;6.30;4.93;;;16.20;86.50;;;;;;2081074;28;20030;-83
2021/06/21 01:33:21;;;;;;;7.05;5.03;;;16.20;86.60;;;;;;2089090;28;20024;-83
2021/06/21 01:34:26;;;;;;;6.85;4.88;;;16.20;86.70;;;;;;2089836;28;20099;-83
2021/06/21 01:35:40;;;;;;;7.35;5.13;;;16.20;86.70;;;;;;2090598;28;20116;-83
2021/06/21 01:36:44;;;;;;;7.32;5.10;;;16.20;86.80;;;;;;2087182;28;20028;-83
2021/06/21 01:37:47;;;;;;;7.15;5.03;;;16.20;86.80;;;;;;2079894;28;20025;-83
2021/06/21 01:38:58;;;;;;;5.60;4.30;;;16.20;86.90;;;;;;2080262;28;20543;-83
2021/06/21 01:40:00;;;;;;;6.15;4.55;;;16.20;87.00;;;;;;2090641;28;20009;-83
2021/06/21 01:41:05;;;;;;;6.63;4.93;;;16.20;87.10;;;;;;2089675;28;20024;-84
2021/06/21 01:42:09;;;;;;;5.30;4.18;;;16.20;87.10;;;;;;2089622;28;20020;-83
2021/06/21 01:43:16;;;;;;;6.40;4.40;;;16.10;87.10;;;;;;2090958;28;20032;-83
2021/06/21 01:44:19;;;;;;;8.52;4.63;;;16.20;87.20;;;;;;2090715;28;20030;-82
2021/06/21 01:45:21;;;;;;;6.05;4.55;;;16.20;87.20;;;;;;2093508;28;20048;-83
2021/06/21 01:46:28;;;;;;;5.72;4.70;;;16.20;87.40;;;;;;2103548;28;20478;-82
2021/06/21 01:47:30;;;;;;;7.07;4.75;;;16.20;87.40;;;;;;2100333;28;20047;-81
2021/06/21 01:48:35;;;;;;;5.85;4.70;;;16.20;87.40;;;;;;2104508;28;20458;-82
2021/06/21 01:49:43;;;;;;;6.18;4.53;;;16.20;87.40;;;;;;2096724;28;20130;-83
2021/06/21 01:50:47;;;;;;;6.00;4.70;;;16.20;87.40;;;;;;2094303;28;20135;-82
2021/06/21 01:51:53;;;;;;;6.57;4.68;;;16.20;87.40;;;;;;2094308;28;20027;-82
2021/06/21 01:53:05;;;;;;;5.80;4.55;;;16.20;87.40;;;;;;2082985;28;20021;-83
2021/06/21 01:54:08;;;;;;;5.35;4.03;;;16.20;87.40;;;;;;2095212;28;20032;-83
2021/06/21 01:55:12;;;;;;;4.90;4.03;;;16.10;87.40;;;;;;2105575;28;20089;-82
2021/06/21 01:56:21;;;;;;;6.35;4.40;;;16.10;87.50;;;;;;2099314;28;20346;-83
2021/06/21 01:57:29;;;;;;;7.40;4.45;;;16.10;87.50;;;;;;2092863;28;20083;-83
2021/06/21 01:58:33;;;;;;;5.53;3.85;;;16.10;87.50;;;;;;2091685;28;20831;-83
2021/06/21 01:59:34;;;;;;;6.15;4.00;;;16.10;87.50;;;;;;2091673;28;20569;-83
2021/06/21 02:00:36;;;;;;;6.13;4.05;;;16.10;87.60;;;;;;2084512;28;20038;-83
2021/06/21 02:01:37;;;;;;;5.35;4.03;;;16.10;87.70;;;;;;2081706;28;20132;-83
2021/06/21 02:02:39;;;;;;;6.18;4.07;;;16.00;87.70;;;;;;2082087;28;20392;-82
2021/06/21 02:03:44;;;;;;;4.45;3.53;;;16.00;87.90;;;;;;2090629;28;20172;-82
2021/06/21 02:04:48;;;;;;;5.72;4.05;;;16.00;87.90;;;;;;2094112;28;20118;-82
2021/06/21 02:05:50;;;;;;;5.85;4.00;;;16.00;88.00;;;;;;2088953;28;20029;-83
2021/06/21 02:06:53;;;;;;;4.75;3.40;;;16.00;88.00;;;;;;2088152;28;20075;-82
2021/06/21 02:07:56;;;;;;;6.22;4.30;;;16.00;88.10;;;;;;2092212;28;20044;-82
2021/06/21 02:08:57;;;;;;;5.70;3.92;;;16.00;88.10;;;;;;2087108;28;20491;-82
2021/06/21 02:09:59;;;;;;;5.43;3.58;;;16.00;88.10;;;;;;2076580;28;20033;-82
2021/06/21 02:10:59;;;;;;;4.53;3.50;;;16.00;88.20;;;;;;2073668;28;20026;-82
2021/06/21 02:12:01;;;;;;;5.00;3.25;;;16.00;88.30;;;;;;2065727;28;20543;-83
2021/06/21 02:13:03;;;;;;;4.75;3.45;;;16.00;88.30;;;;;;2072640;28;20022;-83
2021/06/21 02:14:06;;;;;;;4.82;3.35;;;16.00;88.30;;;;;;2090207;28;20028;-84
2021/06/21 02:15:08;;;;;;;5.22;3.67;;;15.90;88.30;;;;;;2098140;28;20036;-84
2021/06/21 02:16:09;;;;;;;3.85;3.10;;;15.90;88.20;;;;;;2098666;28;20130;-83
2021/06/21 02:17:10;;;;;;;3.50;2.67;;;15.90;88.20;;;;;;2081749;28;20061;-83
2021/06/21 02:18:12;;;;;;;6.30;3.58;;;15.90;88.40;;;;;;2072532;28;20558;-83
2021/06/21 02:19:14;;;;;;;4.30;3.28;;;15.90;88.50;;;;;;2076123;28;20022;-83
2021/06/21 02:20:16;;;;;;;4.75;3.25;;;15.80;88.50;;;;;;2073268;28;20037;-84
2021/06/21 02:21:21;;;;;;;4.15;3.10;;;15.80;88.50;;;;;;2074908;28;20038;-84
2021/06/21 02:22:23;;;;;;;4.35;3.13;;;15.80;88.60;;;;;;2081757;28;20037;-83
2021/06/21 02:23:24;;;;;;;5.45;3.35;;;15.80;88.60;;;;;;2073501;28;20076;-82
2021/06/21 02:24:26;;;;;;;3.75;2.85;;;15.80;88.70;;;;;;2065566;28;20042;-83
2021/06/21 02:25:27;;;;;;;4.90;3.05;;;15.80;88.70;;;;;;2073932;28;20026;-84
2021/06/21 02:26:28;;;;;;;4.43;3.00;;;15.80;88.70;;;;;;2073177;28;20039;-83
2021/06/21 02:27:30;;;;;;;4.68;3.08;;;15.80;88.70;;;;;;2083991;28;20037;-83
2021/06/21 02:28:32;;;;;;;3.80;2.55;;;15.70;88.70;;;;;;2089997;28;20494;-84
2021/06/21 02:29:33;;;;;;;3.40;2.63;;;15.70;88.70;;;;;;2089939;28;20025;-84
2021/06/21 02:30:36;;;;;;;3.92;2.88;;;15.70;88.80;;;;;;2090241;28;20033;-83
2021/06/21 02:31:37;;;;;;;3.95;2.72;;;15.70;88.80;;;;;;2088286;28;20052;-83
2021/06/21 02:32:40;;;;;;;4.82;2.90;;;15.70;88.80;;;;;;2097358;28;20047;-83
2021/06/21 02:33:41;;;;;;;4.55;2.97;;;15.70;89.00;;;;;;2099239;28;20478;-83
2021/06/21 02:34:42;;;;;;;4.53;2.90;;;15.70;88.90;;;;;;2081688;28;20064;-83
2021/06/21 02:35:44;;;;;;;4.88;3.55;;;15.60;88.90;;;;;;2089186;28;20032;-83
2021/06/21 02:36:47;;;;;;;4.47;2.97;;;15.60;89.00;;;;;;2081755;28;20030;-83
2021/06/21 02:37:48;;;;;;;3.83;2.85;;;15.60;89.70;;;;;;2076433;28;20022;-81
2021/06/21 02:38:51;;;;;;;3.83;2.58;;;15.60;89.10;;;;;;2086680;28;20116;-83
2021/06/21 02:39:52;;;;;;;4.35;2.63;;;15.60;89.10;;;;;;2080804;28;20540;-83
2021/06/21 02:40:53;;;;;;;4.68;2.80;;;15.60;89.20;;;;;;2086263;28;20072;-82
2021/06/21 02:41:53;;;;;;;4.07;3.00;;;15.50;89.20;;;;;;2096241;28;20039;-82
2021/06/21 02:42:54;;;;;;;4.38;3.00;;;15.50;89.30;;;;;;2083517;28;20072;-82
2021/06/21 02:43:55;;;;;;;4.55;3.17;;;15.50;89.50;;;;;;2088337;28;20507;-81
2021/06/21 02:44:55;;;;;;;4.90;3.35;;;15.40;89.50;;;;;;2084726;28;20026;-83
2021/06/21 02:45:56;;;;;;;4.55;2.95;;;15.40;89.60;;;;;;2081658;28;20046;-82
2021/06/21 02:46:57;;;;;;;4.35;2.90;;;15.40;89.60;;;;;;2084313;28;20391;-83
2021/06/21 02:47:58;;;;;;;4.75;3.17;;;15.30;89.70;;;;;;2068321;28;20497;-83
2021/06/21 02:48:59;;;;;;;5.15;3.28;;;15.30;89.80;;;;;;2079249;28;20550;-83
2021/06/21 02:50:01;;;;;;;3.88;3.00;;;15.30;89.80;;;;;;2089163;28;20219;-83
2021/06/21 02:51:04;;;;;;;6.70;2.70;;;15.30;90.20;;;;;;2081147;28;20080;-85
2021/06/21 02:52:35;;;;;;;6.60;3.03;;;15.30;90.00;;;;;;2076875;28;20181;-84
2021/06/21 02:53:56;;;;;;;4.53;2.78;;;15.20;90.20;;;;;;2067379;28;20153;-83
2021/06/21 02:55:08;;;;;;;4.70;2.60;;;15.20;89.90;;;;;;2090927;28;20045;-83
2021/06/21 02:56:27;;;;;;;3.80;2.60;;;15.20;90.00;;;;;;2099716;28;20033;-83
2021/06/21 02:57:32;;;;;;;5.07;2.75;;;15.10;90.00;;;;;;2092896;28;20047;-82
2021/06/21 02:58:39;;;;;;;4.03;3.00;;;15.10;90.00;;;;;;2083880;28;20033;-82
2021/06/21 02:59:41;;;;;;;5.35;2.83;;;15.10;90.10;;;;;;2097063;28;20493;-82
2021/06/21 03:00:44;;;;;;;4.68;2.45;;;15.10;90.10;;;;;;2083447;28;20120;-82
2021/06/21 03:01:53;;;;;;;4.28;2.72;;;15.00;90.10;;;;;;2083414;28;20471;-83
2021/06/21 03:02:55;;;;;;;4.07;2.50;;;15.00;90.10;;;;;;2082196;28;20021;-82
2021/06/21 03:03:58;;;;;;;5.22;2.83;;;15.00;90.40;;;;;;2089237;28;20117;-83
2021/06/21 03:05:01;;;;;;;3.75;2.58;;;14.90;90.20;;;;;;2081283;28;20029;-83
2021/06/21 03:06:03;;;;;;;3.55;2.40;;;14.90;90.20;;;;;;2073347;28;20045;-82
2021/06/21 03:07:04;;;;;;;3.50;2.40;;;14.90;90.20;;;;;;2081570;28;20071;-83
2021/06/21 03:08:08;;;;;;;4.22;2.90;;;14.90;90.20;;;;;;2079641;28;20026;-82
2021/06/21 03:09:08;;;;;;;4.03;2.53;;;14.80;90.30;;;;;;2081930;28;20030;-83
2021/06/21 03:10:12;;;;;;;3.83;2.30;;;14.80;90.30;;;;;;2089571;28;20033;-82
2021/06/21 03:11:17;;;;;;;3.60;2.60;;;14.80;90.30;;;;;;2089342;28;20060;-82
2021/06/21 03:12:22;;;;;;;3.80;2.30;;;14.80;90.30;;;;;;2080707;28;20065;-82
2021/06/21 03:13:24;;;;;;;4.75;2.67;;;14.80;90.40;;;;;;2074151;28;20554;-83
2021/06/21 03:14:26;;;;;;;3.25;2.00;;;14.80;90.60;;;;;;2081326;28;20037;-82
2021/06/21 03:15:28;;;;;;;3.28;2.33;;;14.80;90.40;;;;;;2085795;28;20051;-83
2021/06/21 03:16:31;;;;;;;2.50;1.92;;;14.80;90.40;;;;;;2075625;28;20037;-82
2021/06/21 03:17:35;;;;;;;3.47;2.20;;;14.80;90.40;;;;;;2091042;28;20025;-82
2021/06/21 03:18:38;;;;;;;2.80;2.00;;;14.80;90.40;;;;;;2100941;28;20029;-81
2021/06/21 03:19:41;;;;;;;2.85;2.20;;;14.80;90.40;;;;;;2101967;28;20035;-82
2021/06/21 03:20:41;;;;;;;2.40;2.00;;;14.80;90.40;;;;;;2111936;28;20025;-81
2021/06/21 03:21:43;;;;;;;3.80;2.03;;;14.80;90.40;;;;;;2103632;28;20025;-82
2021/06/21 03:22:45;;;;;;;3.70;2.38;;;14.80;90.40;;;;;;2105483;28;20052;-83
2021/06/21 03:23:51;;;;;;;3.58;2.22;;;14.80;90.40;;;;;;2089088;28;20025;-81
2021/06/21 03:24:53;;;;;;;4.32;2.58;;;14.70;90.40;;;;;;2090767;28;20067;-82
2021/06/21 03:25:55;;;;;;;3.47;2.40;;;14.70;90.50;;;;;;2098018;28;20491;-83
2021/06/21 03:26:56;;;;;;;3.25;2.30;;;14.70;90.50;;;;;;2103149;28;20035;-83
2021/06/21 03:28:05;;;;;;;3.75;2.10;;;14.70;90.50;;;;;;2091669;28;20029;-82
2021/06/21 03:29:24;;;;;;;3.05;2.30;;;14.70;90.50;;;;;;2090771;28;20037;-82
2021/06/21 03:30:25;;;;;;;4.00;2.30;;;14.70;90.50;;;;;;2097744;28;20043;-83
2021/06/21 03:31:26;;;;;;;3.47;2.15;;;14.70;90.60;;;;;;2088906;28;20021;-82
2021/06/21 03:32:30;;;;;;;3.03;2.20;;;14.70;90.60;;;;;;2082725;28;20025;-82
2021/06/21 03:33:31;;;;;;;3.30;2.22;;;14.70;90.60;;;;;;2080801;28;20035;-82
2021/06/21 03:34:34;;;;;;;3.95;2.20;;;14.70;90.60;;;;;;2080796;28;20030;-83
2021/06/21 03:35:35;;;;;;;5.15;2.20;;;14.70;90.60;;;;;;2087873;28;20467;-82
2021/06/21 03:36:35;;;;;;;3.03;2.00;;;14.60;90.60;;;;;;2081874;28;20033;-82
2021/06/21 03:37:36;;;;;;;3.28;2.25;;;14.60;90.60;;;;;;2083903;28;20033;-82
2021/06/21 03:38:38;;;;;;;2.55;1.80;;;14.60;90.70;;;;;;2080755;28;20049;-83
2021/06/21 03:39:39;;;;;;;3.28;2.20;;;14.60;90.70;;;;;;2089255;28;20037;-82
2021/06/21 03:40:42;;;;;;;2.58;1.98;;;14.60;90.70;;;;;;2086390;28;20422;-82
2021/06/21 03:41:43;;;;;;;3.35;2.15;;;14.60;90.70;;;;;;2087799;28;20066;-82
2021/06/21 03:42:44;;;;;;;2.42;1.98;;;14.60;90.70;;;;;;2098198;28;20025;-82
2021/06/21 03:43:45;;;;;;;3.13;2.17;;;14.70;90.70;;;;;;2100027;28;20473;-82
2021/06/21 03:44:47;;;;;;;2.53;1.92;;;14.60;90.70;;;;;;2092229;28;20022;-82
2021/06/21 03:45:49;;;;;;;2.30;1.90;;;14.60;90.70;;;;;;2087144;28;131417;-81
2021/06/21 03:46:49;;;;;;;4.30;1.95;;;14.60;90.70;;;;;;2083580;28;20033;-83
2021/06/21 03:47:50;;;;;;;3.80;2.08;;;14.60;90.70;;;;;;2089123;28;20042;-81
2021/06/21 03:48:51;;;;;;;2.88;1.90;;;14.60;90.70;;;;;;2089828;28;20089;-82
2021/06/21 03:49:52;;;;;;;3.58;1.90;;;14.60;90.70;;;;;;2101985;28;20025;-82
2021/06/21 03:50:53;;;;;;;3.30;2.20;;;14.60;90.70;;;;;;2089623;28;20527;-81
2021/06/21 03:51:53;;;;;;;3.47;2.10;;;14.60;90.70;;;;;;2095780;28;20052;-83
2021/06/21 03:52:54;;;;;;;3.97;1.90;;;14.60;90.70;;;;;;2081121;28;20088;-82
2021/06/21 03:53:55;;;;;;;3.58;2.08;;;14.60;90.80;;;;;;2081350;28;20065;-82
2021/06/21 03:55:08;;;;;;;2.67;1.70;;;14.60;90.80;;;;;;2081029;28;20163;-82
2021/06/21 03:56:09;;;;;;;2.42;1.67;;;14.50;91.10;;;;;;2085041;28;20067;-82
2021/06/21 03:57:10;;;;;;;3.33;2.05;;;14.50;90.80;;;;;;2095241;28;20036;-82
2021/06/21 03:58:11;;;;;;;3.90;2.00;;;14.50;90.80;;;;;;2089247;28;20494;-83
2021/06/21 03:59:12;;;;;;;2.78;2.00;;;14.50;90.80;;;;;;2091025;28;20115;-83
2021/06/21 04:00:18;;;;;;;4.05;2.28;;;14.50;90.80;;;;;;2089324;28;20025;-82
2021/06/21 04:01:19;;;;;;;3.17;1.83;;;14.50;90.90;;;;;;2081739;28;20112;-82
2021/06/21 04:02:20;;;;;;;2.67;1.77;;;14.40;90.90;;;;;;2076746;28;20030;-82
2021/06/21 04:03:23;;;;;;;2.53;1.80;;;14.40;90.90;;;;;;2080713;28;20036;-82
2021/06/21 04:04:24;;;;;;;2.58;1.95;;;14.40;90.90;;;;;;2081754;28;20083;-83
2021/06/21 04:05:26;;;;;;;3.97;2.10;;;14.40;91.00;;;;;;2073465;28;20069;-83
2021/06/21 04:06:27;;;;;;;3.53;1.90;;;14.40;91.00;;;;;;2079436;28;20034;-83
2021/06/21 04:07:28;;;;;;;3.72;2.10;;;14.40;91.00;;;;;;2081477;28;20060;-82
2021/06/21 04:08:28;;;;;;;3.03;2.10;;;14.30;91.00;;;;;;2064602;28;20034;-82
2021/06/21 04:09:29;;;;;;;2.33;1.80;;;14.30;91.00;;;;;;2071506;28;20029;-82
2021/06/21 04:10:30;;;;;;;2.67;1.67;;;14.30;91.00;;;;;;2081059;28;20040;-82
2021/06/21 04:11:30;;;;;;;2.00;1.42;;;14.30;91.00;;;;;;2089115;28;20067;-82
2021/06/21 04:12:31;;;;;;;2.55;1.70;;;14.30;91.10;;;;;;2080967;28;20032;-82
2021/06/21 04:13:33;;;;;;;3.00;1.92;;;14.30;91.10;;;;;;2081171;28;20550;-82
2021/06/21 04:14:34;;;;;;;3.35;1.92;;;14.30;91.10;;;;;;2076056;28;20029;-83
2021/06/21 04:15:35;;;;;;;3.45;2.03;;;14.30;91.10;;;;;;2075686;28;20034;-82
2021/06/21 04:16:36;;;;;;;2.85;1.70;;;14.30;91.10;;;;;;2082211;28;20457;-82
2021/06/21 04:17:38;;;;;;;3.03;1.85;;;14.30;91.10;;;;;;2082604;28;20032;-82
2021/06/21 04:18:38;;;;;;;2.78;1.70;;;14.30;91.20;;;;;;2072506;28;20029;-82
2021/06/21 04:19:39;;;;;;;2.53;1.80;;;14.30;91.40;;;;;;2072196;28;20117;-82
2021/06/21 04:20:41;;;;;;;2.90;1.80;;;14.30;91.20;;;;;;2080911;28;20479;-82
2021/06/21 04:21:41;;;;;;;2.35;1.70;;;14.20;91.20;;;;;;2094240;28;20111;-82
2021/06/21 04:22:42;;;;;;;2.15;1.55;;;14.30;91.50;;;;;;2082643;28;20036;-82
2021/06/21 04:23:43;;;;;;;3.03;1.85;;;14.20;91.20;;;;;;2065096;28;20026;-83
2021/06/21 04:24:44;;;;;;;2.97;1.75;;;14.20;91.20;;;;;;2077452;28;20030;-83
2021/06/21 04:25:44;;;;;;;2.78;1.70;;;14.20;91.20;;;;;;2079854;28;20037;-81
2021/06/21 04:26:45;;;;;;;2.35;1.50;;;14.20;91.20;;;;;;2086597;28;20033;-82
2021/06/21 04:27:46;;;;;;;3.33;1.65;;;14.20;91.30;;;;;;2094012;28;20070;-82
2021/06/21 04:28:47;;;;;;;2.60;1.65;;;14.20;91.30;;;;;;2086473;28;20419;-82
2021/06/21 04:29:48;;;;;;;3.17;1.63;;;14.20;91.30;;;;;;2090282;28;20448;-82
2021/06/21 04:30:48;;;;;;;2.30;1.70;;;14.20;91.30;;;;;;2092570;28;20039;-82
2021/06/21 04:31:49;;;;;;;1.80;1.40;;;14.20;91.30;;;;;;2076343;28;20041;-82
2021/06/21 04:32:52;;;;;;;2.83;1.67;;;14.10;91.30;;;;;;2085558;28;20563;-82
2021/06/21 04:33:52;;;;;;;2.50;1.70;;;14.10;91.40;;;;;;2089921;28;20119;-82
2021/06/21 04:34:53;;;;;;;1.80;1.30;;;14.10;91.40;;;;;;2087453;28;20524;-82
2021/06/21 04:35:54;;;;;;;2.15;1.60;;;14.10;91.40;;;;;;2092389;28;20088;-82
2021/06/21 04:36:54;;;;;;;1.83;1.60;;;14.20;91.40;;;;;;2083034;28;20025;-82
2021/06/21 04:37:56;;;;;;;1.98;1.50;;;14.20;91.40;;;;;;2089111;28;20103;-82
2021/06/21 04:38:57;;;;;;;2.92;1.50;;;14.20;91.40;;;;;;2088519;28;20025;-83
2021/06/21 04:39:58;;;;;;;2.40;1.55;;;14.20;91.40;;;;;;2072776;28;20388;-81
2021/06/21 04:40:58;;;;;;;2.15;1.42;;;14.20;91.30;;;;;;2074187;28;20022;-82
2021/06/21 04:41:59;;;;;;;2.67;1.80;;;14.20;91.40;;;;;;2083663;28;20064;-83
2021/06/21 04:43:00;;;;;;;2.53;1.50;;;14.20;91.40;;;;;;2087734;28;20163;-82
2021/06/21 04:44:01;;;;;;;2.72;1.95;;;14.20;91.30;;;;;;2091321;28;20044;-82
2021/06/21 04:45:03;;;;;;;2.60;1.80;;;14.20;91.30;;;;;;2086649;28;20017;-82
2021/06/21 04:46:04;;;;;;;2.72;1.70;;;14.20;91.40;;;;;;2088992;28;20049;-82
2021/06/21 04:47:05;;;;;;;2.28;1.67;;;14.20;91.40;;;;;;2097755;28;20465;-81
2021/06/21 04:48:06;;;;;;;1.98;1.48;;;14.20;91.40;;;;;;2089529;28;20029;-81
2021/06/21 04:49:12;;;;;;;2.50;1.73;;;14.20;91.40;;;;;;2093472;28;20502;-82
2021/06/21 04:50:14;;;;;;;2.53;1.60;;;14.20;91.40;;;;;;2088142;28;20056;-81
2021/06/21 04:51:18;;;;;;;2.63;1.73;;;14.20;91.40;;;;;;2087570;28;20033;-82
2021/06/21 04:52:22;;;;;;;2.38;1.50;;;14.20;91.40;;;;;;2073260;28;20424;-82
2021/06/21 04:53:22;;;;;;;3.22;1.65;;;14.20;91.40;;;;;;2067597;28;20504;-82
2021/06/21 04:54:23;;;;;;;1.90;1.50;;;14.20;91.40;;;;;;2078873;28;20037;-82
2021/06/21 04:55:24;;;;;;;2.78;1.50;;;14.20;91.40;;;;;;2080793;28;20037;-82
2021/06/21 04:56:24;;;;;;;2.30;1.70;;;14.20;91.40;;;;;;2070179;28;20069;-82
2021/06/21 04:57:25;;;;;;;1.98;1.40;;;14.30;91.40;;;;;;2079032;28;20045;-83
2021/06/21 04:58:26;;;;;;;2.30;1.50;;;14.30;91.40;;;;;;2097938;28;20058;-82
2021/06/21 04:59:27;;;;;;;2.38;1.60;;;14.30;91.40;;;;;;2092106;28;20368;-82
2021/06/21 05:00:27;;;;;;;2.53;1.40;;;14.30;91.40;;;;;;2080387;28;20044;-82
2021/06/21 05:01:28;;;;;;;2.08;1.40;;;14.30;91.40;;;;;;2086022;28;20432;-83
2021/06/21 05:02:29;;;;;;;2.00;1.23;;;14.30;91.50;;;;;;2087867;28;20502;-82
2021/06/21 05:03:29;;;;;;;2.38;1.45;;;14.30;91.30;;;;;;2080723;28;20025;-82
2021/06/21 05:04:30;;;;;;;1.70;1.20;;;14.30;91.40;;;;;;2088944;28;20112;-82
2021/06/21 05:05:30;;;;;;;1.92;1.20;;;14.30;91.40;;;;;;2088305;28;20399;-81
2021/06/21 05:06:38;;;;;;;1.55;1.30;;;14.30;91.40;;;;;;2077217;28;20561;-82
2021/06/21 05:07:40;;;;;;;2.50;1.52;;;14.30;91.40;;;;;;2074446;28;20112;-82
2021/06/21 05:08:41;;;;;;;1.80;1.27;;;14.20;91.40;;;;;;2081857;28;20599;-82
2021/06/21 05:09:42;;;;;;;2.13;1.50;;;14.30;91.70;;;;;;2098138;28;20531;-81
2021/06/21 05:10:43;;;;;;;2.30;1.30;;;14.30;91.40;;;;;;2080665;28;20459;-82
2021/06/21 05:11:44;;;;;;;2.20;1.33;;;14.30;91.40;;;;;;2065409;28;20053;-82
2021/06/21 05:12:45;;;;;;;1.60;1.25;;;14.30;91.40;;;;;;2078718;28;20083;-82
2021/06/21 05:13:46;;;;;;;2.00;1.42;;;14.20;91.30;;;;;;2073835;28;20032;-81
2021/06/21 05:14:46;;;;;;;1.92;1.50;;;14.20;91.40;;;;;;2080370;28;20040;-83
2021/06/21 05:15:48;;;;;;;1.75;1.40;;;14.20;91.40;;;;;;2088797;28;20102;-82
2021/06/21 05:16:48;;;;;;;2.20;1.50;;;14.20;91.50;;;;;;2097572;28;20085;-82
2021/06/21 05:17:49;;;;;;;1.70;1.30;;;14.20;91.50;;;;;;2089276;28;20549;-82
2021/06/21 05:18:50;;;;;;;1.90;1.20;;;14.20;91.50;;;;;;2081295;28;20121;-83
2021/06/21 05:19:50;;;;;;;1.88;1.27;;;14.20;91.50;;;;;;2087781;28;20052;-82
2021/06/21 05:20:51;;;;;;;1.35;1.00;;;14.20;91.50;;;;;;2102988;28;20095;-82
2021/06/21 05:21:51;;;;;;;2.17;1.42;;;14.20;91.50;;;;;;2080926;28;20028;-82
2021/06/21 05:22:52;;;;;;;2.00;1.60;;;14.20;91.50;;;;;;2081286;28;20112;-82
2021/06/21 05:23:53;;;;;;;1.65;1.20;;;14.20;91.40;;;;;;2088398;28;20028;-83
2021/06/21 05:24:54;;;;;;;1.58;1.13;;;14.20;91.50;;;;;;2088612;28;20029;-83
2021/06/21 05:25:55;;;;;;;1.45;1.10;;;14.20;91.50;;;;;;2074725;28;20061;-82
2021/06/21 05:26:56;;;;;;;2.53;1.27;;;14.20;91.50;;;;;;2080770;28;20053;-82
2021/06/21 05:27:57;;;;;;;1.35;1.10;;;14.20;91.60;;;;;;2087454;28;20442;-81